Time;durP1;ratioP1;P1;durP2;ratioP2;P2;SDS_P1;SDS_P2;PMS_P1;PMS_P2;Temp;Humidity;BMP_temperature;BMP_pressure;BME280_temperature;BME280_humidity;BME280_pressure;Samples;Min_cycle;Max_cycle;Signal;HPM_P1;HPM_P2
2021/08/26 00:06:32;;;;;;;13.57;5.20;;;;;;;;;;5024046;28;20989;-75
2021/08/26 00:08:58;;;;;;;20.33;4.73;;;;;;;;;;5030017;28;20421;-75
2021/08/26 00:11:25;;;;;;;15.40;4.97;;;;;;;;;;5034151;28;20419;-74
2021/08/26 00:13:52;;;;;;;18.63;5.00;;;;;;;;;;5034338;28;20446;-74
2021/08/26 00:16:24;;;;;;;19.83;4.47;;;;;;;;;;5040239;28;20451;-73
2021/08/26 00:18:50;;;;;;;11.77;4.43;;;;;;;;;;5033489;28;20418;-74
2021/08/26 00:21:16;;;;;;;9.70;3.73;;;;;;;;;;5033845;28;20457;-75
2021/08/26 00:23:42;;;;;;;14.77;6.90;;;;;;;;;;5037271;28;20462;-75
2021/08/26 00:26:08;;;;;;;15.97;5.63;;;;;;;;;;5033070;28;20496;-76
2021/08/26 00:28:34;;;;;;;19.17;5.27;;;;;;;;;;5032990;28;20435;-73
2021/08/26 00:31:00;;;;;;;15.30;4.87;;;;;;;;;;5033514;28;20789;-74
2021/08/26 00:33:27;;;;;;;17.60;5.17;;;;;;;;;;5033505;28;20434;-73
2021/08/26 00:35:53;;;;;;;13.43;5.30;;;;;;;;;;5033248;28;20967;-74
2021/08/26 00:38:21;;;;;;;10.80;4.17;;;;;;;;;;5032207;28;20898;-74
2021/08/26 00:40:47;;;;;;;13.63;4.43;;;;;;;;;;5027020;28;20983;-74
2021/08/26 00:43:13;;;;;;;17.67;5.73;;;;;;;;;;5033488;28;20422;-73
2021/08/26 00:45:40;;;;;;;14.43;5.27;;;;;;;;;;5033494;28;20465;-74
2021/08/26 00:48:08;;;;;;;19.40;5.23;;;;;;;;;;5033171;28;20562;-74
2021/08/26 00:50:34;;;;;;;13.10;5.00;;;;;;;;;;5033585;28;20412;-75
2021/08/26 00:53:01;;;;;;;15.43;5.23;;;;;;;;;;5035307;28;20417;-75
2021/08/26 00:55:27;;;;;;;17.97;5.40;;;;;;;;;;5052257;28;20420;-74
2021/08/26 00:57:53;;;;;;;18.33;5.23;;;;;;;;;;5032778;28;20448;-72
2021/08/26 01:00:20;;;;;;;20.40;5.90;;;;;;;;;;5031694;28;20930;-73
2021/08/26 01:02:55;;;;;;;18.07;4.97;;;;;;;;;;5028993;28;20902;-73
2021/08/26 01:05:24;;;;;;;12.87;4.80;;;;;;;;;;5030823;28;20429;-74
2021/08/26 01:08:00;;;;;;;14.70;6.57;;;;;;;;;;5023774;28;20486;-73
2021/08/26 01:10:26;;;;;;;17.10;5.40;;;;;;;;;;5028613;28;20434;-73
2021/08/26 01:12:55;;;;;;;19.83;5.33;;;;;;;;;;5045594;28;20421;-74
2021/08/26 01:15:21;;;;;;;18.80;5.23;;;;;;;;;;5051007;28;20417;-74
2021/08/26 01:17:47;;;;;;;17.43;5.93;;;;;;;;;;5020210;28;20447;-73
2021/08/26 01:20:14;;;;;;;14.57;5.53;;;;;;;;;;5052401;28;20417;-72
2021/08/26 01:22:40;;;;;;;20.53;5.13;;;;;;;;;;5037717;28;20520;-73
2021/08/26 01:25:07;;;;;;;18.17;5.10;;;;;;;;;;5050459;28;20411;-73
2021/08/26 01:27:35;;;;;;;18.93;5.63;;;;;;;;;;5035451;28;20469;-73
2021/08/26 01:30:02;;;;;;;14.40;4.87;;;;;;;;;;5032494;28;20832;-74
2021/08/26 01:32:29;;;;;;;18.10;6.20;;;;;;;;;;5032828;28;20465;-72
2021/08/26 01:34:55;;;;;;;17.70;5.70;;;;;;;;;;5028202;28;20520;-72
2021/08/26 01:37:22;;;;;;;19.27;6.47;;;;;;;;;;5026823;28;20827;-74
2021/08/26 01:39:52;;;;;;;24.70;7.10;;;;;;;;;;5027341;28;20432;-73
2021/08/26 01:42:19;;;;;;;19.00;5.60;;;;;;;;;;5032848;28;20419;-74
2021/08/26 01:44:45;;;;;;;16.20;5.90;;;;;;;;;;5032859;28;20773;-73
2021/08/26 01:47:16;;;;;;;22.97;5.70;;;;;;;;;;5032017;28;20876;-72
2021/08/26 01:49:42;;;;;;;8.87;4.60;;;;;;;;;;5024630;28;20435;-74
2021/08/26 01:52:08;;;;;;;21.00;6.00;;;;;;;;;;5026475;28;20437;-72
2021/08/26 01:54:34;;;;;;;15.63;5.93;;;;;;;;;;5036296;28;20409;-73
2021/08/26 01:57:00;;;;;;;19.27;5.77;;;;;;;;;;5034125;28;20542;-73
2021/08/26 01:59:26;;;;;;;17.13;6.33;;;;;;;;;;5027096;28;20563;-73
2021/08/26 02:01:52;;;;;;;19.20;6.97;;;;;;;;;;5032127;28;20443;-73
2021/08/26 02:04:18;;;;;;;17.20;6.20;;;;;;;;;;5033078;28;20419;-73
2021/08/26 02:06:44;;;;;;;14.70;5.87;;;;;;;;;;5020896;28;20510;-74
2021/08/26 02:09:10;;;;;;;15.93;4.90;;;;;;;;;;5028593;28;20413;-72
2021/08/26 02:11:36;;;;;;;20.77;5.87;;;;;;;;;;5052731;28;20416;-74
2021/08/26 02:14:03;;;;;;;18.50;6.00;;;;;;;;;;5056523;28;20419;-73
2021/08/26 02:16:29;;;;;;;20.83;6.53;;;;;;;;;;5047277;28;20547;-74
2021/08/26 02:18:55;;;;;;;21.03;4.93;;;;;;;;;;5030913;28;20447;-74
2021/08/26 02:21:21;;;;;;;19.40;5.67;;;;;;;;;;5035764;28;20471;-74
2021/08/26 02:23:50;;;;;;;20.30;5.13;;;;;;;;;;5027787;28;20461;-74
2021/08/26 02:26:16;;;;;;;13.33;5.33;;;;;;;;;;5035857;28;20476;-74
2021/08/26 02:28:42;;;;;;;19.43;5.93;;;;;;;;;;5044764;28;22733;-74
2021/08/26 02:31:08;;;;;;;17.00;5.20;;;;;;;;;;5027931;28;20447;-72
2021/08/26 02:33:34;;;;;;;15.93;5.20;;;;;;;;;;5035697;28;20498;-73
2021/08/26 02:36:00;;;;;;;16.83;5.00;;;;;;;;;;5036046;28;20432;-72
2021/08/26 02:38:26;;;;;;;26.90;6.20;;;;;;;;;;5039088;28;20433;-73
2021/08/26 02:40:52;;;;;;;22.13;6.00;;;;;;;;;;5032158;28;20781;-73
2021/08/26 02:43:18;;;;;;;18.00;6.57;;;;;;;;;;5042302;28;20762;-73
2021/08/26 02:45:44;;;;;;;15.57;5.40;;;;;;;;;;5044656;28;20500;-73
2021/08/26 02:48:10;;;;;;;23.77;7.13;;;;;;;;;;5043734;28;20449;-73
2021/08/26 02:50:36;;;;;;;24.00;6.10;;;;;;;;;;5043621;28;20431;-73
2021/08/26 02:53:02;;;;;;;11.43;5.30;;;;;;;;;;5035641;28;20455;-72
2021/08/26 02:55:28;;;;;;;21.63;5.90;;;;;;;;;;5035507;28;20412;-72
2021/08/26 02:57:55;;;;;;;18.10;4.50;;;;;;;;;;5041175;28;20971;-73
2021/08/26 03:00:21;;;;;;;18.17;7.00;;;;;;;;;;5037393;28;20774;-73
2021/08/26 03:02:47;;;;;;;15.23;7.80;;;;;;;;;;5035278;28;20535;-72
2021/08/26 03:05:13;;;;;;;22.70;5.43;;;;;;;;;;5035261;28;20521;-73
2021/08/26 03:07:39;;;;;;;17.07;5.67;;;;;;;;;;5029384;28;20559;-72
2021/08/26 03:10:05;;;;;;;18.63;6.13;;;;;;;;;;5035298;28;20414;-73
2021/08/26 03:12:31;;;;;;;21.93;5.80;;;;;;;;;;5040630;28;20423;-72
2021/08/26 03:14:57;;;;;;;18.87;5.63;;;;;;;;;;5054211;28;20443;-72
2021/08/26 03:17:23;;;;;;;13.53;4.90;;;;;;;;;;5051400;28;20458;-73
2021/08/26 03:19:49;;;;;;;27.00;5.80;;;;;;;;;;5037467;28;20432;-73
2021/08/26 03:22:15;;;;;;;17.30;6.53;;;;;;;;;;5034178;28;20906;-74
2021/08/26 03:24:41;;;;;;;16.77;5.93;;;;;;;;;;5034833;28;20554;-72
2021/08/26 03:27:07;;;;;;;13.63;4.70;;;;;;;;;;5033004;28;20484;-73
2021/08/26 03:29:33;;;;;;;13.13;5.07;;;;;;;;;;5034970;28;20429;-73
2021/08/26 03:31:59;;;;;;;15.53;5.30;;;;;;;;;;5035055;28;20425;-73
2021/08/26 03:34:25;;;;;;;22.50;6.10;;;;;;;;;;5034777;28;20548;-73
2021/08/26 03:36:51;;;;;;;28.27;5.30;;;;;;;;;;5034420;28;20547;-72
2021/08/26 03:39:17;;;;;;;17.13;5.87;;;;;;;;;;5038626;28;20436;-73
2021/08/26 03:41:43;;;;;;;16.30;6.20;;;;;;;;;;5054895;28;20412;-73
2021/08/26 03:44:09;;;;;;;13.90;5.10;;;;;;;;;;5049139;28;20781;-73
2021/08/26 03:46:35;;;;;;;19.63;5.07;;;;;;;;;;5034227;28;20474;-73
2021/08/26 03:49:01;;;;;;;21.43;5.40;;;;;;;;;;5033035;28;20415;-74
2021/08/26 03:51:28;;;;;;;19.70;5.23;;;;;;;;;;5041087;28;20742;-73
2021/08/26 03:53:54;;;;;;;14.93;5.80;;;;;;;;;;5054890;28;20416;-72
2021/08/26 03:56:20;;;;;;;14.13;4.83;;;;;;;;;;5037113;28;20453;-72
2021/08/26 03:58:46;;;;;;;18.07;5.90;;;;;;;;;;5032288;28;20488;-73
2021/08/26 04:01:12;;;;;;;17.23;6.17;;;;;;;;;;5032356;28;20425;-73
2021/08/26 04:03:38;;;;;;;16.03;5.93;;;;;;;;;;5034634;28;20417;-73
2021/08/26 04:06:04;;;;;;;27.33;5.27;;;;;;;;;;5034010;28;20502;-74
2021/08/26 04:08:30;;;;;;;22.33;5.87;;;;;;;;;;5033780;28;20463;-72
2021/08/26 04:10:56;;;;;;;16.43;5.50;;;;;;;;;;5044158;28;20417;-74
2021/08/26 04:13:22;;;;;;;15.73;6.10;;;;;;;;;;5053861;28;20765;-74
2021/08/26 04:15:49;;;;;;;12.73;4.90;;;;;;;;;;5046094;28;20748;-73
2021/08/26 04:18:15;;;;;;;19.70;5.43;;;;;;;;;;5033671;28;20434;-73
2021/08/26 04:20:41;;;;;;;14.77;4.87;;;;;;;;;;5030375;28;20439;-73
2021/08/26 04:23:07;;;;;;;15.47;5.03;;;;;;;;;;5040030;28;20425;-72
2021/08/26 04:25:34;;;;;;;15.50;5.20;;;;;;;;;;5033654;28;20919;-73
2021/08/26 04:28:00;;;;;;;18.20;6.40;;;;;;;;;;5033179;28;20970;-73
2021/08/26 04:30:26;;;;;;;15.67;5.23;;;;;;;;;;5025042;28;20430;-73
2021/08/26 04:32:52;;;;;;;18.23;7.50;;;;;;;;;;5034439;28;20426;-74
2021/08/26 04:35:18;;;;;;;15.00;5.43;;;;;;;;;;5033527;28;20429;-73
2021/08/26 04:37:44;;;;;;;17.43;5.87;;;;;;;;;;5033562;28;20457;-74
2021/08/26 04:40:10;;;;;;;18.57;6.47;;;;;;;;;;5033065;28;20416;-73
2021/08/26 04:42:36;;;;;;;20.73;5.90;;;;;;;;;;5035188;28;20516;-74
2021/08/26 04:45:02;;;;;;;17.63;5.95;;;;;;;;;;5032947;28;20430;-73
2021/08/26 04:47:28;;;;;;;21.57;5.60;;;;;;;;;;5036080;28;20292;-73
2021/08/26 04:49:54;;;;;;;20.43;5.87;;;;;;;;;;5033712;28;20491;-74
2021/08/26 04:52:20;;;;;;;20.40;4.80;;;;;;;;;;5033918;28;20770;-72
2021/08/26 04:54:46;;;;;;;10.70;5.10;;;;;;;;;;5033214;28;20417;-74
2021/08/26 04:57:12;;;;;;;17.53;6.20;;;;;;;;;;5032571;28;20790;-73
2021/08/26 04:59:38;;;;;;;16.63;5.37;;;;;;;;;;5030091;28;20424;-74
2021/08/26 05:02:04;;;;;;;11.33;4.93;;;;;;;;;;5033378;28;20527;-74
2021/08/26 05:04:30;;;;;;;19.83;5.60;;;;;;;;;;5033142;28;20833;-73
2021/08/26 05:06:56;;;;;;;14.77;4.70;;;;;;;;;;5030002;28;20500;-72
2021/08/26 05:09:22;;;;;;;16.37;4.90;;;;;;;;;;5029505;28;20512;-74
2021/08/26 05:11:48;;;;;;;17.50;4.80;;;;;;;;;;5033560;28;20401;-73
2021/08/26 05:14:14;;;;;;;17.67;4.93;;;;;;;;;;5030053;28;20963;-73
2021/08/26 05:16:40;;;;;;;14.93;4.60;;;;;;;;;;5032522;28;20522;-73
2021/08/26 05:19:06;;;;;;;19.33;4.37;;;;;;;;;;5033159;28;20517;-74
2021/08/26 05:21:32;;;;;;;13.53;4.30;;;;;;;;;;5033116;28;20430;-74
2021/08/26 05:23:58;;;;;;;10.93;5.10;;;;;;;;;;5024482;28;20455;-74
2021/08/26 05:26:24;;;;;;;14.67;5.73;;;;;;;;;;5035327;28;20511;-74
2021/08/26 05:28:51;;;;;;;10.17;3.83;;;;;;;;;;5032005;28;20952;-73
2021/08/26 05:31:17;;;;;;;15.23;4.23;;;;;;;;;;5032742;28;20456;-74
2021/08/26 05:33:43;;;;;;;16.33;4.93;;;;;;;;;;5032944;28;20423;-74
2021/08/26 05:36:09;;;;;;;14.37;4.57;;;;;;;;;;5032444;28;20443;-74
2021/08/26 05:38:35;;;;;;;10.03;4.27;;;;;;;;;;5032170;28;20892;-74
2021/08/26 05:41:01;;;;;;;16.33;4.63;;;;;;;;;;5032899;28;20480;-73
2021/08/26 05:43:27;;;;;;;17.37;4.30;;;;;;;;;;5032770;28;20845;-74
2021/08/26 05:45:53;;;;;;;24.33;4.23;;;;;;;;;;5033912;28;20537;-74
2021/08/26 05:48:19;;;;;;;11.97;4.20;;;;;;;;;;5036507;28;20480;-74
2021/08/26 05:50:45;;;;;;;17.67;4.40;;;;;;;;;;5036416;28;20887;-74
2021/08/26 05:53:11;;;;;;;15.13;4.63;;;;;;;;;;5035465;28;20454;-74
2021/08/26 05:55:37;;;;;;;13.53;4.30;;;;;;;;;;5036355;28;20427;-74
2021/08/26 05:58:03;;;;;;;9.73;4.13;;;;;;;;;;5033142;28;20437;-74
2021/08/26 06:00:29;;;;;;;10.40;4.60;;;;;;;;;;5036752;28;20845;-74
2021/08/26 06:02:55;;;;;;;9.60;4.17;;;;;;;;;;5030354;28;20511;-73
2021/08/26 06:05:21;;;;;;;17.80;6.03;;;;;;;;;;5036760;28;20518;-74
2021/08/26 06:07:47;;;;;;;18.70;5.10;;;;;;;;;;5036137;28;20475;-74
2021/08/26 06:10:13;;;;;;;11.07;3.90;;;;;;;;;;5036909;28;20472;-74
2021/08/26 06:12:40;;;;;;;10.87;3.77;;;;;;;;;;5051629;28;20426;-73
2021/08/26 06:15:07;;;;;;;8.57;4.07;;;;;;;;;;5048193;28;20901;-73
2021/08/26 06:17:33;;;;;;;15.83;4.87;;;;;;;;;;5051819;28;20425;-72
2021/08/26 06:19:59;;;;;;;12.37;4.50;;;;;;;;;;5056388;28;20729;-73
2021/08/26 06:22:25;;;;;;;13.27;4.27;;;;;;;;;;5051221;28;20511;-72
2021/08/26 06:24:51;;;;;;;13.23;4.43;;;;;;;;;;5036553;28;20901;-72
2021/08/26 06:27:17;;;;;;;11.33;3.50;;;;;;;;;;5027643;28;20466;-73
2021/08/26 06:29:43;;;;;;;8.20;3.33;;;;;;;;;;5032538;28;20419;-74
2021/08/26 06:32:09;;;;;;;9.47;3.60;;;;;;;;;;5038923;28;20435;-74
2021/08/26 06:34:35;;;;;;;10.87;3.60;;;;;;;;;;5020157;28;20437;-74
2021/08/26 06:37:02;;;;;;;12.10;3.80;;;;;;;;;;5040850;28;20434;-75
2021/08/26 06:39:28;;;;;;;8.37;3.33;;;;;;;;;;5028461;28;20425;-72
2021/08/26 06:41:55;;;;;;;10.47;3.90;;;;;;;;;;5028233;28;20419;-74
2021/08/26 06:44:21;;;;;;;10.20;3.67;;;;;;;;;;5038482;28;20429;-74
2021/08/26 06:46:47;;;;;;;9.60;4.37;;;;;;;;;;5035441;28;20489;-74
2021/08/26 06:49:13;;;;;;;9.63;3.90;;;;;;;;;;5031762;28;20897;-74
2021/08/26 06:51:39;;;;;;;11.87;3.50;;;;;;;;;;5029417;28;20485;-73
2021/08/26 06:54:05;;;;;;;6.43;3.20;;;;;;;;;;5031386;28;20434;-73
2021/08/26 06:56:31;;;;;;;8.03;3.50;;;;;;;;;;5027441;28;20886;-73
2021/08/26 06:58:57;;;;;;;9.37;3.10;;;;;;;;;;5030669;28;20440;-74
2021/08/26 07:01:23;;;;;;;9.13;4.10;;;;;;;;;;5023489;28;20425;-73
2021/08/26 07:03:50;;;;;;;11.57;3.30;;;;;;;;;;5031518;28;20435;-74
2021/08/26 07:06:17;;;;;;;11.50;3.50;;;;;;;;;;5031761;28;20829;-73
2021/08/26 07:08:43;;;;;;;12.23;4.33;;;;;;;;;;5031199;28;21083;-74
2021/08/26 07:11:09;;;;;;;12.17;3.47;;;;;;;;;;5031825;28;20810;-71
2021/08/26 07:13:35;;;;;;;9.53;3.83;;;;;;;;;;5031340;28;20426;-72
2021/08/26 07:16:01;;;;;;;11.20;3.33;;;;;;;;;;5031610;28;20493;-72
2021/08/26 07:18:28;;;;;;;7.70;3.37;;;;;;;;;;5030781;28;21042;-72
2021/08/26 07:20:54;;;;;;;7.13;3.47;;;;;;;;;;5030747;28;20422;-72
2021/08/26 07:23:21;;;;;;;9.50;3.50;;;;;;;;;;5030881;28;20487;-71
2021/08/26 07:25:47;;;;;;;13.33;3.60;;;;;;;;;;5023758;28;20479;-73
2021/08/26 07:28:13;;;;;;;7.23;3.10;;;;;;;;;;5035557;28;20466;-73
2021/08/26 07:30:40;;;;;;;6.07;2.70;;;;;;;;;;5031413;28;20415;-73
2021/08/26 07:33:06;;;;;;;6.20;3.30;;;;;;;;;;5030830;28;20427;-73
2021/08/26 07:35:32;;;;;;;9.27;3.30;;;;;;;;;;5027006;28;20803;-73
2021/08/26 07:37:58;;;;;;;9.60;3.30;;;;;;;;;;5024340;28;20506;-72
2021/08/26 07:40:24;;;;;;;6.60;3.37;;;;;;;;;;5031018;28;20413;-73
2021/08/26 07:42:50;;;;;;;11.23;2.83;;;;;;;;;;5022090;28;20434;-73
2021/08/26 07:45:16;;;;;;;6.90;2.70;;;;;;;;;;5051277;28;20490;-73
2021/08/26 07:47:42;;;;;;;6.70;2.97;;;;;;;;;;5031542;28;20471;-72
2021/08/26 07:50:09;;;;;;;9.23;3.73;;;;;;;;;;5034705;28;20411;-73
2021/08/26 07:52:35;;;;;;;7.30;3.23;;;;;;;;;;5035595;28;20470;-73
2021/08/26 07:55:02;;;;;;;10.20;3.27;;;;;;;;;;5039337;28;20519;-73
2021/08/26 07:57:29;;;;;;;8.03;2.67;;;;;;;;;;5040345;28;20439;-73
2021/08/26 07:59:55;;;;;;;6.20;3.30;;;;;;;;;;5040869;28;20431;-73
2021/08/26 08:02:21;;;;;;;5.77;2.30;;;;;;;;;;5051297;28;21010;-73
2021/08/26 08:04:47;;;;;;;5.60;2.60;;;;;;;;;;5044381;28;20493;-74
2021/08/26 08:07:13;;;;;;;9.43;2.67;;;;;;;;;;5039745;28;20521;-73
2021/08/26 08:09:39;;;;;;;5.53;2.40;;;;;;;;;;5029863;28;20474;-73
2021/08/26 08:12:05;;;;;;;5.67;2.30;;;;;;;;;;5030170;28;20460;-75
2021/08/26 08:14:32;;;;;;;9.33;2.50;;;;;;;;;;5041412;28;20479;-72
2021/08/26 08:16:58;;;;;;;7.37;2.90;;;;;;;;;;5030823;28;20594;-72
2021/08/26 08:19:25;;;;;;;3.33;2.00;;;;;;;;;;5046824;28;20478;-72
2021/08/26 08:21:51;;;;;;;6.83;2.27;;;;;;;;;;5046750;28;20425;-72
2021/08/26 08:24:17;;;;;;;4.73;2.00;;;;;;;;;;5048330;28;20438;-71
2021/08/26 08:26:43;;;;;;;6.07;2.37;;;;;;;;;;5029578;28;20472;-72
2021/08/26 08:29:09;;;;;;;6.10;1.90;;;;;;;;;;5020089;28;20454;-72
2021/08/26 08:31:35;;;;;;;3.00;1.87;;;;;;;;;;5030242;28;20421;-73
2021/08/26 08:34:01;;;;;;;5.37;2.20;;;;;;;;;;5017017;28;20484;-74
2021/08/26 08:36:27;;;;;;;6.70;3.07;;;;;;;;;;5050065;28;20439;-72
2021/08/26 08:38:53;;;;;;;7.33;2.13;;;;;;;;;;5034612;28;20436;-72
2021/08/26 08:41:21;;;;;;;3.60;2.30;;;;;;;;;;5028583;28;20473;-71
2021/08/26 08:43:47;;;;;;;3.87;2.00;;;;;;;;;;5029638;28;20444;-73
2021/08/26 08:46:14;;;;;;;6.73;2.47;;;;;;;;;;5029619;28;20480;-72
2021/08/26 08:48:41;;;;;;;9.90;3.33;;;;;;;;;;5028974;28;20439;-73
2021/08/26 08:51:08;;;;;;;6.30;1.87;;;;;;;;;;5029798;28;20416;-74
2021/08/26 08:53:34;;;;;;;4.20;1.90;;;;;;;;;;5029419;28;20817;-74
2021/08/26 08:56:03;;;;;;;4.37;1.93;;;;;;;;;;5029800;28;20523;-73
2021/08/26 08:58:29;;;;;;;3.23;2.00;;;;;;;;;;5028546;28;20468;-73
2021/08/26 09:00:55;;;;;;;5.93;2.10;;;;;;;;;;5018906;28;20470;-74
2021/08/26 09:03:21;;;;;;;3.60;1.60;;;;;;;;;;5025073;28;20471;-74
2021/08/26 09:05:51;;;;;;;4.10;1.97;;;;;;;;;;5029021;28;20448;-74
2021/08/26 09:08:17;;;;;;;8.63;2.03;;;;;;;;;;5029210;28;20455;-76
2021/08/26 09:10:43;;;;;;;9.70;1.80;;;;;;;;;;5029431;28;20783;-75
2021/08/26 09:13:09;;;;;;;4.77;2.20;;;;;;;;;;5027286;28;20462;-73
2021/08/26 09:15:36;;;;;;;4.67;2.07;;;;;;;;;;5049340;28;20761;-74
2021/08/26 09:18:20;;;;;;;4.10;1.80;;;;;;;;;;5042531;28;20781;-74
2021/08/26 09:20:50;;;;;;;4.27;1.57;;;;;;;;;;5032257;28;20446;-73
2021/08/26 09:23:17;;;;;;;4.57;1.70;;;;;;;;;;5029117;28;20460;-74
2021/08/26 09:25:43;;;;;;;5.83;2.10;;;;;;;;;;5029008;28;20517;-74
2021/08/26 09:28:28;;;;;;;5.83;2.30;;;;;;;;;;5028746;28;20518;-72
2021/08/26 09:31:13;;;;;;;6.90;1.97;;;;;;;;;;5024110;28;20454;-73
2021/08/26 09:33:57;;;;;;;3.47;1.60;;;;;;;;;;5028839;28;20755;-74
2021/08/26 09:36:23;;;;;;;2.70;1.23;;;;;;;;;;5029304;28;20941;-73
2021/08/26 09:39:00;;;;;;;6.43;1.80;;;;;;;;;;5028791;28;20432;-73
2021/08/26 09:41:38;;;;;;;5.63;1.83;;;;;;;;;;5029155;28;20426;-73
2021/08/26 09:44:05;;;;;;;5.50;1.60;;;;;;;;;;5028648;28;20934;-75
2021/08/26 09:46:32;;;;;;;4.57;1.47;;;;;;;;;;5029078;28;21205;-73
2021/08/26 09:49:08;;;;;;;3.10;1.73;;;;;;;;;;5028366;28;20754;-74
2021/08/26 09:51:34;;;;;;;3.50;1.50;;;;;;;;;;5017433;28;20412;-74
2021/08/26 09:54:01;;;;;;;3.40;1.50;;;;;;;;;;5028666;28;20447;-74
2021/08/26 09:56:40;;;;;;;2.90;1.50;;;;;;;;;;5033922;28;20474;-75
2021/08/26 09:59:06;;;;;;;3.10;1.50;;;;;;;;;;5035451;28;20432;-76
2021/08/26 10:01:36;;;;;;;3.03;1.80;;;;;;;;;;5027495;28;20937;-73
2021/08/26 10:04:02;;;;;;;2.73;1.40;;;;;;;;;;5028966;28;20466;-74
2021/08/26 10:06:28;;;;;;;2.70;1.50;;;;;;;;;;5028556;28;20475;-75
2021/08/26 10:08:54;;;;;;;3.47;1.40;;;;;;;;;;5028490;28;20429;-74
2021/08/26 10:11:21;;;;;;;2.27;1.37;;;;;;;;;;5028829;28;20799;-73
2021/08/26 10:13:49;;;;;;;4.80;1.87;;;;;;;;;;5028664;28;20448;-74
2021/08/26 10:16:15;;;;;;;3.67;1.53;;;;;;;;;;5028306;28;20451;-72
2021/08/26 10:18:41;;;;;;;2.87;1.40;;;;;;;;;;5028141;28;20499;-73
2021/08/26 10:21:09;;;;;;;4.53;1.70;;;;;;;;;;5031399;28;20428;-73
2021/08/26 10:23:39;;;;;;;2.93;1.67;;;;;;;;;;5028491;28;20450;-74
2021/08/26 10:26:07;;;;;;;3.13;1.20;;;;;;;;;;5037627;28;20553;-73
2021/08/26 10:28:39;;;;;;;4.73;1.73;;;;;;;;;;5044603;28;20415;-73
2021/08/26 10:31:23;;;;;;;3.47;1.60;;;;;;;;;;5023239;28;20432;-75
2021/08/26 10:33:49;;;;;;;2.57;1.30;;;;;;;;;;5027705;28;20433;-73
2021/08/26 10:36:15;;;;;;;2.40;1.40;;;;;;;;;;5026174;28;20452;-73
2021/08/26 10:38:41;;;;;;;2.67;1.30;;;;;;;;;;5025277;28;20438;-72
2021/08/26 10:41:19;;;;;;;2.33;1.17;;;;;;;;;;5036691;28;20468;-72
2021/08/26 10:43:46;;;;;;;2.77;1.17;;;;;;;;;;5051863;28;20501;-72
2021/08/26 10:46:14;;;;;;;3.90;1.20;;;;;;;;;;5035451;28;20480;-74
2021/08/26 10:48:40;;;;;;;5.37;1.30;;;;;;;;;;5051942;28;20419;-73
2021/08/26 10:51:17;;;;;;;4.00;1.47;;;;;;;;;;5038828;28;20915;-74
2021/08/26 10:53:47;;;;;;;3.70;1.30;;;;;;;;;;5052108;28;20912;-73
2021/08/26 10:56:18;;;;;;;2.20;1.20;;;;;;;;;;5038762;28;20449;-74
2021/08/26 10:58:44;;;;;;;3.03;1.23;;;;;;;;;;5049919;28;20851;-74
2021/08/26 11:01:11;;;;;;;3.20;1.40;;;;;;;;;;5026691;28;21004;-74
2021/08/26 11:03:42;;;;;;;3.53;1.37;;;;;;;;;;5031861;28;21192;-73
2021/08/26 11:06:13;;;;;;;3.53;1.40;;;;;;;;;;5018662;28;20850;-73
2021/08/26 11:08:41;;;;;;;2.73;1.30;;;;;;;;;;5019901;28;20479;-73
2021/08/26 11:11:29;;;;;;;1.80;0.90;;;;;;;;;;5031147;28;20959;-73
2021/08/26 11:14:06;;;;;;;2.23;1.10;;;;;;;;;;5028499;28;20420;-71
2021/08/26 11:16:36;;;;;;;2.83;1.30;;;;;;;;;;5028405;28;20493;-71
2021/08/26 11:19:05;;;;;;;3.83;1.47;;;;;;;;;;5031376;28;21178;-73
2021/08/26 11:21:44;;;;;;;3.27;1.10;;;;;;;;;;5036485;28;20424;-72
2021/08/26 11:24:10;;;;;;;2.97;1.10;;;;;;;;;;5031143;28;20420;-71
2021/08/26 11:26:55;;;;;;;5.20;1.40;;;;;;;;;;5029401;28;20467;-72
2021/08/26 11:29:21;;;;;;;2.63;1.00;;;;;;;;;;5034250;28;20428;-71
2021/08/26 11:31:57;;;;;;;2.80;0.93;;;;;;;;;;5031414;28;20483;-72
2021/08/26 11:34:42;;;;;;;3.60;1.17;;;;;;;;;;5032511;28;20494;-72
2021/08/26 11:37:09;;;;;;;5.30;1.17;;;;;;;;;;5046848;28;20485;-71
2021/08/26 11:39:37;;;;;;;2.70;1.10;;;;;;;;;;5030275;28;20425;-72
2021/08/26 11:42:04;;;;;;;2.77;1.10;;;;;;;;;;5031033;28;20424;-74
2021/08/26 11:44:31;;;;;;;2.43;1.80;;;;;;;;;;5033544;28;20480;-74
2021/08/26 11:46:58;;;;;;;2.30;1.33;;;;;;;;;;5030239;28;20495;-73
2021/08/26 11:49:38;;;;;;;1.80;0.90;;;;;;;;;;5031097;28;20497;-74
2021/08/26 11:52:15;;;;;;;2.40;1.20;;;;;;;;;;5030762;28;20455;-73
2021/08/26 11:54:46;;;;;;;2.20;1.10;;;;;;;;;;5031103;28;20818;-74
2021/08/26 11:57:13;;;;;;;2.03;1.40;;;;;;;;;;5021843;28;20537;-74
2021/08/26 11:59:39;;;;;;;2.20;1.30;;;;;;;;;;5044526;28;20435;-74
2021/08/26 12:02:18;;;;;;;3.00;1.27;;;;;;;;;;5050476;28;20423;-74
2021/08/26 12:04:46;;;;;;;2.80;1.00;;;;;;;;;;5048011;28;20993;-74
2021/08/26 12:07:20;;;;;;;2.93;1.83;;;;;;;;;;5050169;28;20475;-74
2021/08/26 12:09:46;;;;;;;2.77;1.10;;;;;;;;;;5025905;28;20437;-75
2021/08/26 12:12:13;;;;;;;2.77;1.13;;;;;;;;;;5044697;28;20472;-74
2021/08/26 12:14:39;;;;;;;3.60;1.50;;;;;;;;;;5030612;28;20475;-74
2021/08/26 12:17:16;;;;;;;3.97;1.40;;;;;;;;;;5029691;28;20463;-74
2021/08/26 12:19:42;;;;;;;2.30;1.00;;;;;;;;;;5030564;28;20493;-73
2021/08/26 12:22:09;;;;;;;2.57;1.30;;;;;;;;;;5039014;28;20428;-75
2021/08/26 12:24:35;;;;;;;2.73;1.00;;;;;;;;;;5030380;28;20446;-74
2021/08/26 12:27:10;;;;;;;1.90;0.90;;;;;;;;;;5027133;28;20506;-73
2021/08/26 12:29:43;;;;;;;2.80;1.20;;;;;;;;;;5026147;28;20853;-76
2021/08/26 12:32:31;;;;;;;2.93;1.20;;;;;;;;;;5029508;28;20419;-73
2021/08/26 12:35:18;;;;;;;1.90;1.10;;;;;;;;;;5016737;28;20438;-74
2021/08/26 12:37:50;;;;;;;2.00;1.10;;;;;;;;;;5020444;28;20961;-74
2021/08/26 12:40:16;;;;;;;4.37;1.63;;;;;;;;;;5021818;28;20478;-73
2021/08/26 12:42:55;;;;;;;2.27;1.10;;;;;;;;;;5030030;28;20428;-73
2021/08/26 12:45:21;;;;;;;2.47;1.13;;;;;;;;;;5029867;28;20424;-74
2021/08/26 12:47:47;;;;;;;2.77;1.30;;;;;;;;;;5029273;28;20478;-73
2021/08/26 12:50:13;;;;;;;2.77;1.10;;;;;;;;;;5028519;28;20538;-74
2021/08/26 12:52:40;;;;;;;2.27;1.20;;;;;;;;;;5042171;28;20527;-74
2021/08/26 12:55:07;;;;;;;2.30;1.20;;;;;;;;;;5024513;28;20926;-75
2021/08/26 12:57:34;;;;;;;2.80;1.53;;;;;;;;;;5034168;28;20524;-76
2021/08/26 13:00:00;;;;;;;2.80;1.07;;;;;;;;;;5032859;28;20500;-75
2021/08/26 13:02:26;;;;;;;2.10;1.10;;;;;;;;;;5024479;28;20902;-74
2021/08/26 13:05:06;;;;;;;3.60;1.00;;;;;;;;;;5029580;28;20413;-74
2021/08/26 13:07:32;;;;;;;3.03;1.10;;;;;;;;;;5029049;28;21054;-73
2021/08/26 13:09:59;;;;;;;3.20;1.20;;;;;;;;;;5025618;28;20487;-73
2021/08/26 13:12:26;;;;;;;6.60;1.37;;;;;;;;;;5034421;28;20445;-74
2021/08/26 13:14:52;;;;;;;1.90;0.97;;;;;;;;;;5029101;28;20463;-74
2021/08/26 13:17:18;;;;;;;2.10;1.20;;;;;;;;;;5020562;28;20456;-74
2021/08/26 13:19:46;;;;;;;1.87;1.07;;;;;;;;;;5034641;28;20485;-74
2021/08/26 13:22:18;;;;;;;2.10;1.30;;;;;;;;;;5032898;28;20477;-75
2021/08/26 13:24:45;;;;;;;2.60;1.20;;;;;;;;;;5019375;28;20792;-75
2021/08/26 13:27:11;;;;;;;2.20;1.10;;;;;;;;;;5021781;28;20476;-75
2021/08/26 13:29:37;;;;;;;2.00;1.13;;;;;;;;;;5033448;28;20424;-75
2021/08/26 13:32:03;;;;;;;2.57;1.10;;;;;;;;;;5022889;28;20437;-75
2021/08/26 13:34:29;;;;;;;3.87;1.30;;;;;;;;;;5033362;28;20412;-74
2021/08/26 13:36:56;;;;;;;2.93;1.20;;;;;;;;;;5041510;28;21039;-75
2021/08/26 13:39:22;;;;;;;2.37;1.17;;;;;;;;;;5029094;28;20781;-75
2021/08/26 13:41:48;;;;;;;2.10;1.20;;;;;;;;;;5029204;28;20443;-74
2021/08/26 13:44:14;;;;;;;3.20;1.20;;;;;;;;;;5030107;28;20427;-75
2021/08/26 13:46:43;;;;;;;2.60;1.50;;;;;;;;;;5034080;28;20470;-74
2021/08/26 13:49:09;;;;;;;2.27;1.00;;;;;;;;;;5028317;28;20852;-75
2021/08/26 13:51:35;;;;;;;2.40;1.17;;;;;;;;;;5024604;28;20540;-75
2021/08/26 13:54:01;;;;;;;3.07;1.20;;;;;;;;;;5025720;28;20545;-74
2021/08/26 13:56:27;;;;;;;1.90;1.00;;;;;;;;;;5028386;28;20463;-74
2021/08/26 13:58:54;;;;;;;2.93;1.10;;;;;;;;;;5032407;28;20918;-72
2021/08/26 14:01:20;;;;;;;2.17;1.10;;;;;;;;;;5026003;28;20439;-73
2021/08/26 14:03:46;;;;;;;2.20;1.20;;;;;;;;;;5027709;28;20952;-73
2021/08/26 14:06:12;;;;;;;2.80;1.30;;;;;;;;;;5029086;28;20472;-75
2021/08/26 14:08:39;;;;;;;2.00;1.07;;;;;;;;;;5032339;28;20928;-74
2021/08/26 14:11:05;;;;;;;2.10;1.27;;;;;;;;;;5032236;28;20438;-74
2021/08/26 14:13:31;;;;;;;3.70;1.27;;;;;;;;;;5031590;28;20503;-74
2021/08/26 14:15:57;;;;;;;3.47;1.30;;;;;;;;;;5027916;28;20476;-73
2021/08/26 14:18:23;;;;;;;2.53;1.30;;;;;;;;;;5027797;28;20433;-74
2021/08/26 14:20:49;;;;;;;2.60;1.40;;;;;;;;;;5042161;28;20424;-73
2021/08/26 14:23:16;;;;;;;2.80;0.97;;;;;;;;;;5032297;28;20433;-76
2021/08/26 14:25:42;;;;;;;3.43;1.20;;;;;;;;;;5025932;28;20422;-73
2021/08/26 14:28:08;;;;;;;3.77;2.13;;;;;;;;;;5041667;28;20975;-73
2021/08/26 14:30:34;;;;;;;4.33;1.00;;;;;;;;;;5033595;28;20440;-73
2021/08/26 14:33:00;;;;;;;2.57;1.40;;;;;;;;;;5024409;28;20488;-75
2021/08/26 14:35:26;;;;;;;2.57;1.30;;;;;;;;;;5023902;28;20465;-74
2021/08/26 14:37:52;;;;;;;2.50;1.33;;;;;;;;;;5033285;28;20474;-74
2021/08/26 14:40:18;;;;;;;2.60;1.60;;;;;;;;;;5026082;28;20978;-73
2021/08/26 14:42:44;;;;;;;7.53;1.50;;;;;;;;;;5032492;28;20420;-75